createdAt,value
2022-12-31T00:00:24.120Z,32.90
2022-12-31T00:02:55.812Z,37.20
2022-12-31T00:05:27.726Z,38.70
2022-12-31T00:07:59.528Z,36.30
2022-12-31T00:10:31.366Z,37.40
2022-12-31T00:13:03.248Z,40.80
2022-12-31T00:15:35.222Z,36.30
2022-12-31T00:18:08.209Z,29.90
2022-12-31T00:20:43.559Z,33.80
2022-12-31T00:23:15.154Z,36.40
2022-12-31T00:25:46.749Z,36.60
2022-12-31T00:28:18.715Z,36.60
2022-12-31T00:30:50.531Z,40.60
2022-12-31T00:33:22.326Z,34.60
2022-12-31T00:35:54.748Z,39.20
2022-12-31T00:38:26.348Z,36.40
2022-12-31T00:40:58.570Z,39.40
2022-12-31T00:43:30.245Z,35.70
2022-12-31T00:46:28.677Z,34.60
2022-12-31T00:49:18.371Z,31.90
2022-12-31T00:52:34.843Z,30.70
2022-12-31T00:55:07.655Z,33.60
2022-12-31T00:57:39.604Z,30.90
2022-12-31T01:00:24.266Z,30.70
2022-12-31T01:02:56.148Z,28.40
2022-12-31T01:05:28.057Z,31.90
2022-12-31T01:08:23.930Z,33.40
2022-12-31T01:11:12.873Z,31.80
2022-12-31T01:13:44.638Z,32.50
2022-12-31T01:16:17.703Z,34.70
2022-12-31T01:18:49.312Z,29.80
2022-12-31T01:21:21.796Z,28.60
2022-12-31T01:24:00.035Z,27.80
2022-12-31T01:26:31.702Z,28.70
2022-12-31T01:29:17.327Z,29.30
2022-12-31T01:32:00.830Z,25.30
2022-12-31T01:34:53.928Z,28.80
2022-12-31T01:38:26.752Z,27.90
2022-12-31T01:40:58.478Z,25.20
2022-12-31T01:43:47.691Z,26.10
2022-12-31T01:46:25.374Z,26.40
2022-12-31T01:49:00.881Z,28.30
2022-12-31T01:51:36.265Z,23.80
2022-12-31T01:54:10.936Z,28.80
2022-12-31T01:56:44.866Z,23.50
2022-12-31T01:59:18.976Z,28.50
2022-12-31T02:01:54.248Z,28.20
2022-12-31T02:04:28.208Z,28.50
2022-12-31T02:07:03.171Z,28.90
2022-12-31T02:09:36.010Z,26.20
2022-12-31T02:12:08.935Z,25.90
2022-12-31T02:14:44.161Z,22.60
2022-12-31T02:17:27.164Z,24.50
2022-12-31T02:20:21.122Z,25.70
2022-12-31T02:23:08.972Z,25.90
2022-12-31T02:26:12.323Z,25.80
2022-12-31T02:29:05.417Z,27.20
2022-12-31T02:31:41.104Z,27.80
2022-12-31T02:34:17.348Z,25.20
2022-12-31T02:36:53.050Z,24.20
2022-12-31T02:39:25.045Z,26.90
2022-12-31T02:41:56.677Z,27.90
2022-12-31T02:44:30.439Z,28.30
2022-12-31T02:47:22.346Z,30.60
2022-12-31T02:50:06.898Z,27.10
2022-12-31T02:52:48.590Z,29.70
2022-12-31T02:55:26.406Z,28.70
2022-12-31T02:58:05.595Z,33.00
2022-12-31T03:01:04.111Z,29.10
2022-12-31T03:03:36.923Z,27.30
2022-12-31T03:06:11.419Z,31.30
2022-12-31T03:08:59.453Z,28.80
2022-12-31T03:11:48.956Z,27.10
2022-12-31T03:14:20.666Z,27.40
2022-12-31T03:16:52.190Z,27.60
2022-12-31T03:20:10.446Z,27.40
2022-12-31T03:22:44.647Z,26.70
2022-12-31T03:25:41.003Z,26.40
2022-12-31T03:28:14.885Z,27.10
2022-12-31T03:30:53.148Z,28.10
2022-12-31T03:33:36.620Z,28.20
2022-12-31T03:36:10.473Z,29.60
2022-12-31T03:38:42.363Z,29.90
2022-12-31T03:41:14.699Z,29.60
2022-12-31T03:43:46.270Z,26.10
2022-12-31T03:46:17.994Z,26.10
2022-12-31T03:48:50.077Z,25.70
2022-12-31T03:51:22.002Z,29.50
2022-12-31T03:53:53.653Z,30.40
2022-12-31T03:56:25.232Z,27.50
2022-12-31T03:58:56.903Z,30.00
2022-12-31T04:01:28.616Z,30.20
2022-12-31T04:04:00.462Z,26.50
2022-12-31T04:06:32.096Z,24.70
2022-12-31T04:09:04.417Z,29.10
2022-12-31T04:11:35.894Z,27.60
2022-12-31T04:14:09.068Z,29.10
2022-12-31T04:16:40.917Z,26.20
2022-12-31T04:19:13.006Z,29.60
2022-12-31T04:21:44.640Z,28.10
2022-12-31T04:24:16.741Z,26.60
2022-12-31T04:26:48.457Z,26.00
2022-12-31T04:29:20.146Z,28.10
2022-12-31T04:31:51.825Z,26.50
2022-12-31T04:34:27.979Z,25.80
2022-12-31T04:37:02.198Z,26.40
2022-12-31T04:39:33.910Z,26.90
2022-12-31T04:42:05.743Z,25.90
2022-12-31T04:44:37.414Z,26.60
2022-12-31T04:47:09.064Z,25.70
2022-12-31T04:49:40.648Z,23.30
2022-12-31T04:52:12.435Z,24.50
2022-12-31T04:54:44.000Z,26.20
2022-12-31T04:57:16.673Z,24.40
2022-12-31T04:59:48.320Z,27.10
2022-12-31T05:02:20.192Z,24.40
2022-12-31T05:04:52.193Z,22.80
2022-12-31T05:07:24.014Z,21.10
2022-12-31T05:09:55.667Z,20.80
2022-12-31T05:12:27.214Z,21.80
2022-12-31T05:14:59.010Z,22.70
2022-12-31T05:17:30.893Z,25.40
2022-12-31T05:20:02.753Z,22.20
2022-12-31T05:22:34.553Z,19.20
2022-12-31T05:25:07.608Z,21.40
2022-12-31T05:27:39.932Z,23.10
2022-12-31T05:30:13.438Z,20.30
2022-12-31T05:32:44.956Z,21.20
2022-12-31T05:35:16.963Z,19.00
2022-12-31T05:37:48.681Z,21.40
2022-12-31T05:40:20.523Z,19.70
2022-12-31T05:42:52.838Z,22.60
2022-12-31T05:45:30.350Z,19.70
2022-12-31T05:48:02.941Z,20.50
2022-12-31T05:50:34.643Z,19.20
2022-12-31T05:53:06.341Z,20.60
2022-12-31T05:55:38.785Z,19.00
2022-12-31T05:58:10.303Z,20.00
2022-12-31T06:00:41.994Z,19.20
2022-12-31T06:03:13.973Z,21.20
2022-12-31T06:05:46.580Z,17.10
2022-12-31T06:08:18.348Z,16.00
2022-12-31T06:10:50.751Z,18.70
2022-12-31T06:13:22.382Z,16.40
2022-12-31T06:15:53.979Z,17.10
2022-12-31T06:18:26.430Z,18.20
2022-12-31T06:20:59.541Z,17.70
2022-12-31T06:23:32.097Z,14.30
2022-12-31T06:26:07.330Z,14.00
2022-12-31T06:28:39.168Z,17.50
2022-12-31T06:31:14.453Z,17.80
2022-12-31T06:33:47.922Z,15.20
2022-12-31T06:36:19.666Z,16.30
2022-12-31T06:38:51.465Z,16.60
2022-12-31T06:41:23.632Z,15.40
2022-12-31T06:43:55.261Z,15.00
2022-12-31T06:46:27.286Z,15.90
2022-12-31T06:48:58.974Z,17.60
2022-12-31T06:51:31.058Z,14.10
2022-12-31T06:54:02.653Z,14.10
2022-12-31T06:56:35.775Z,18.50
2022-12-31T06:59:08.521Z,17.20
2022-12-31T07:01:50.306Z,14.20
2022-12-31T07:04:46.232Z,15.10
2022-12-31T07:07:23.333Z,14.10
2022-12-31T07:10:03.272Z,16.70
2022-12-31T07:12:53.536Z,13.50
2022-12-31T07:15:45.922Z,15.40
2022-12-31T07:18:27.113Z,15.80
2022-12-31T07:21:00.670Z,17.00
2022-12-31T07:23:33.422Z,15.10
2022-12-31T07:26:12.743Z,14.90
2022-12-31T07:28:59.227Z,15.60
2022-12-31T07:31:45.636Z,14.20
2022-12-31T07:34:26.037Z,17.80
2022-12-31T07:37:08.341Z,16.70
2022-12-31T07:39:48.315Z,17.20
2022-12-31T07:42:25.845Z,17.20
2022-12-31T07:45:04.403Z,15.10
2022-12-31T07:47:37.973Z,15.80
2022-12-31T07:50:18.993Z,16.00
2022-12-31T07:52:51.580Z,15.20
2022-12-31T07:55:23.337Z,17.10
2022-12-31T07:58:00.915Z,16.40
2022-12-31T08:00:34.302Z,16.90
2022-12-31T08:03:17.844Z,16.00
2022-12-31T08:06:01.202Z,13.80
2022-12-31T08:08:44.781Z,15.10
2022-12-31T08:11:23.201Z,15.00
2022-12-31T08:13:57.660Z,14.10
2022-12-31T08:16:30.392Z,15.50
2022-12-31T08:19:04.738Z,14.60
2022-12-31T08:21:50.510Z,17.00
2022-12-31T08:24:30.253Z,14.70
2022-12-31T08:27:11.443Z,13.10
2022-12-31T08:29:50.254Z,14.00
2022-12-31T08:32:27.061Z,15.10
2022-12-31T08:35:10.083Z,15.00
2022-12-31T08:37:45.545Z,12.50
2022-12-31T08:40:26.659Z,13.50
2022-12-31T08:43:25.203Z,15.00
2022-12-31T08:45:58.585Z,15.00
2022-12-31T08:48:41.032Z,14.50
2022-12-31T08:51:20.454Z,12.70
2022-12-31T08:53:53.786Z,13.30
2022-12-31T08:56:33.394Z,13.80
2022-12-31T08:59:15.195Z,12.80
2022-12-31T09:02:10.528Z,12.00
2022-12-31T09:07:25.281Z,11.00
2022-12-31T09:10:06.118Z,12.50
2022-12-31T09:12:47.623Z,12.00
2022-12-31T09:15:26.766Z,12.50
2022-12-31T09:17:59.274Z,12.90
2022-12-31T09:20:42.965Z,13.10
2022-12-31T09:23:16.166Z,14.20
2022-12-31T09:25:58.189Z,10.30
2022-12-31T09:28:40.939Z,13.30
2022-12-31T09:31:19.513Z,11.30
2022-12-31T09:33:57.775Z,10.90
2022-12-31T09:36:33.863Z,14.50
2022-12-31T09:39:13.803Z,12.40
2022-12-31T09:42:13.711Z,11.20
2022-12-31T09:45:12.549Z,12.40
2022-12-31T09:48:22.450Z,11.30
2022-12-31T09:51:07.317Z,9.50
2022-12-31T09:53:54.270Z,11.60
2022-12-31T09:56:31.160Z,10.60
2022-12-31T09:59:08.251Z,11.00
2022-12-31T10:01:50.949Z,10.20
2022-12-31T10:04:56.059Z,9.80
2022-12-31T10:07:52.023Z,9.40
2022-12-31T10:10:31.233Z,9.20
2022-12-31T10:13:30.724Z,10.00
2022-12-31T10:16:17.714Z,8.40
2022-12-31T10:19:11.109Z,9.30
2022-12-31T10:21:56.586Z,7.80
2022-12-31T10:24:57.377Z,7.90
2022-12-31T10:27:45.733Z,10.50
2022-12-31T10:30:20.646Z,12.80
2022-12-31T10:33:16.966Z,9.80
2022-12-31T10:35:56.187Z,8.60
2022-12-31T10:38:36.424Z,9.20
2022-12-31T10:41:39.188Z,9.10
2022-12-31T10:44:53.395Z,8.30
2022-12-31T10:50:50.556Z,7.90
2022-12-31T10:53:47.146Z,6.40
2022-12-31T10:56:44.806Z,7.20
2022-12-31T11:00:00.213Z,8.10
2022-12-31T11:03:03.048Z,10.60
2022-12-31T11:05:58.515Z,9.50
2022-12-31T11:09:02.607Z,8.10
2022-12-31T11:11:45.820Z,8.30
2022-12-31T11:14:40.000Z,8.20
2022-12-31T11:17:28.528Z,7.50
2022-12-31T11:20:16.228Z,8.10
2022-12-31T11:23:11.184Z,7.30
2022-12-31T11:25:56.553Z,8.10
2022-12-31T11:28:45.155Z,10.30
2022-12-31T11:31:29.256Z,7.80
2022-12-31T11:34:17.220Z,10.60
2022-12-31T11:37:09.640Z,7.30
2022-12-31T11:39:57.184Z,8.80
2022-12-31T11:42:42.072Z,8.20
2022-12-31T11:45:28.501Z,7.60
2022-12-31T11:48:31.594Z,8.80
2022-12-31T11:51:21.838Z,8.50
2022-12-31T11:54:27.719Z,9.50
2022-12-31T11:59:34.586Z,7.20
2022-12-31T12:02:25.719Z,7.80
2022-12-31T12:05:06.395Z,9.00
2022-12-31T12:07:41.922Z,9.80
2022-12-31T12:10:29.296Z,8.00
2022-12-31T12:13:14.982Z,7.00
2022-12-31T12:15:50.464Z,8.60
2022-12-31T12:18:42.308Z,8.00
2022-12-31T12:21:17.934Z,8.30
2022-12-31T12:24:01.126Z,8.30
2022-12-31T12:26:38.162Z,8.70
2022-12-31T12:29:21.637Z,7.90
2022-12-31T12:32:03.477Z,8.50
2022-12-31T12:34:47.569Z,7.80
2022-12-31T12:37:37.486Z,8.30
2022-12-31T12:40:38.035Z,7.40
2022-12-31T12:43:22.727Z,9.30
2022-12-31T12:45:57.879Z,9.10
2022-12-31T12:48:38.886Z,9.60
2022-12-31T12:51:29.518Z,9.70
2022-12-31T12:54:33.967Z,13.30
2022-12-31T12:57:24.366Z,9.90
2022-12-31T13:00:58.694Z,12.10
2022-12-31T13:04:33.649Z,10.00
2022-12-31T13:07:29.281Z,9.80
2022-12-31T13:10:57.516Z,10.50
2022-12-31T13:13:48.237Z,10.80
2022-12-31T13:16:31.710Z,8.30
2022-12-31T13:20:19.186Z,11.90
2022-12-31T13:22:29.130Z,10.30
2022-12-31T13:25:07.668Z,9.80
2022-12-31T13:27:46.221Z,9.90
2022-12-31T13:30:20.978Z,9.20
2022-12-31T13:35:31.296Z,9.80
2022-12-31T13:38:07.459Z,10.30
2022-12-31T13:40:50.635Z,8.90
2022-12-31T13:43:31.804Z,10.00
2022-12-31T13:46:12.110Z,9.80
2022-12-31T13:48:50.177Z,9.50
2022-12-31T13:51:31.570Z,10.50
2022-12-31T13:54:08.404Z,8.10
2022-12-31T13:56:44.103Z,10.00
2022-12-31T13:59:25.499Z,10.20
2022-12-31T14:02:11.649Z,8.90
2022-12-31T14:04:54.987Z,9.70
2022-12-31T14:07:45.597Z,11.80
2022-12-31T14:10:25.596Z,9.00
2022-12-31T14:13:09.606Z,9.40
2022-12-31T14:15:48.946Z,8.50
2022-12-31T14:18:38.777Z,10.00
2022-12-31T14:21:20.650Z,8.60
2022-12-31T14:24:10.902Z,8.90
2022-12-31T14:26:47.467Z,9.10
2022-12-31T14:29:40.964Z,9.00
2022-12-31T14:32:44.698Z,12.50
2022-12-31T14:35:43.202Z,10.50
2022-12-31T14:38:26.609Z,11.00
2022-12-31T14:41:11.742Z,12.60
2022-12-31T14:46:32.668Z,10.30
2022-12-31T14:49:16.987Z,11.70
2022-12-31T14:51:49.937Z,10.30
2022-12-31T14:54:35.895Z,10.00
2022-12-31T14:57:25.236Z,10.60
2022-12-31T15:00:03.577Z,9.00
2022-12-31T15:02:55.982Z,9.40
2022-12-31T15:05:45.728Z,9.60
2022-12-31T15:08:43.437Z,7.90
2022-12-31T15:11:40.604Z,9.90
2022-12-31T15:14:37.547Z,9.50
2022-12-31T15:17:18.760Z,8.20
2022-12-31T15:20:34.717Z,11.90
2022-12-31T15:23:14.195Z,11.80
2022-12-31T15:25:52.004Z,12.80
2022-12-31T15:28:33.437Z,11.90
2022-12-31T15:31:15.946Z,11.10
2022-12-31T15:34:01.423Z,12.10
2022-12-31T15:36:35.909Z,10.10
2022-12-31T15:39:37.960Z,9.70
2022-12-31T15:42:38.725Z,9.20
2022-12-31T15:45:27.150Z,10.20
2022-12-31T15:48:07.899Z,11.50
2022-12-31T15:51:21.547Z,9.60
2022-12-31T15:53:52.512Z,10.60
2022-12-31T15:56:31.973Z,9.70
2022-12-31T15:59:06.048Z,10.20
2022-12-31T16:01:42.298Z,9.50
2022-12-31T16:04:23.661Z,9.70
2022-12-31T16:06:56.434Z,10.40
2022-12-31T16:09:30.869Z,10.10
2022-12-31T16:12:03.963Z,9.40
2022-12-31T16:14:41.827Z,9.10
2022-12-31T16:17:29.725Z,8.40
2022-12-31T16:20:04.079Z,10.80
2022-12-31T16:22:43.035Z,9.40
2022-12-31T16:25:37.293Z,10.00
2022-12-31T16:28:09.182Z,9.80
2022-12-31T16:30:44.432Z,10.00
2022-12-31T16:33:27.199Z,10.80
2022-12-31T16:36:09.194Z,11.10
2022-12-31T16:38:41.882Z,11.30
2022-12-31T16:41:28.860Z,11.30
2022-12-31T16:44:00.895Z,11.20
2022-12-31T16:46:35.816Z,10.20
2022-12-31T16:49:24.258Z,10.80
2022-12-31T16:52:03.656Z,11.60
2022-12-31T16:54:48.689Z,9.70
2022-12-31T16:57:24.746Z,10.90
2022-12-31T17:00:01.260Z,10.90
2022-12-31T17:02:41.175Z,11.80
2022-12-31T17:05:36.291Z,9.70
2022-12-31T17:13:00.995Z,10.20
2022-12-31T17:16:21.871Z,10.70
2022-12-31T17:22:36.355Z,11.40
2022-12-31T17:25:22.846Z,10.30
2022-12-31T17:28:25.118Z,10.80
2022-12-31T17:31:27.384Z,12.60
2022-12-31T17:34:35.975Z,11.70
2022-12-31T17:38:05.540Z,13.30
2022-12-31T17:43:42.197Z,12.60
2022-12-31T17:46:20.368Z,10.60
2022-12-31T17:48:58.104Z,11.70
2022-12-31T17:51:32.608Z,13.20
2022-12-31T17:54:07.972Z,14.00
2022-12-31T17:56:39.981Z,11.60
2022-12-31T17:59:16.241Z,13.80
2022-12-31T18:01:48.940Z,16.00
2022-12-31T18:04:22.430Z,13.40
2022-12-31T18:06:54.465Z,11.20
2022-12-31T18:09:26.454Z,14.40
2022-12-31T18:12:01.699Z,15.20
2022-12-31T18:14:36.426Z,15.30
2022-12-31T18:17:14.345Z,12.20
2022-12-31T18:20:04.204Z,7.90
2022-12-31T18:22:39.046Z,11.00
2022-12-31T18:25:24.363Z,9.20
2022-12-31T18:28:00.536Z,9.90
2022-12-31T18:30:33.249Z,8.80
2022-12-31T18:33:06.701Z,8.30
2022-12-31T18:36:07.704Z,8.20
2022-12-31T18:38:31.460Z,8.20
2022-12-31T18:41:03.669Z,8.80
2022-12-31T18:43:35.601Z,8.50
2022-12-31T18:46:08.146Z,7.80
2022-12-31T18:48:41.820Z,8.60
2022-12-31T18:51:17.818Z,8.90
2022-12-31T18:53:49.760Z,11.20
2022-12-31T18:56:25.503Z,9.10
2022-12-31T18:58:57.163Z,8.40
2022-12-31T19:01:35.320Z,7.90
2022-12-31T19:04:13.527Z,9.60
2022-12-31T19:06:49.037Z,10.80
2022-12-31T19:09:44.102Z,9.90
2022-12-31T19:12:15.984Z,10.00
2022-12-31T19:14:47.851Z,9.50
2022-12-31T19:17:19.665Z,11.50
2022-12-31T19:19:51.234Z,7.30
2022-12-31T19:22:22.927Z,9.20
2022-12-31T19:24:55.687Z,8.10
2022-12-31T19:27:27.890Z,8.50
2022-12-31T19:30:01.665Z,8.00
2022-12-31T19:32:33.231Z,10.50
2022-12-31T19:35:04.985Z,8.90
2022-12-31T19:37:37.106Z,10.20
2022-12-31T19:40:14.804Z,9.10
2022-12-31T19:42:46.513Z,8.70
2022-12-31T19:45:21.304Z,8.10
2022-12-31T19:47:53.930Z,13.00
2022-12-31T19:50:27.949Z,9.80
2022-12-31T19:53:01.822Z,10.30
2022-12-31T19:55:36.406Z,13.30
2022-12-31T20:00:38.276Z,12.10
2022-12-31T20:03:11.345Z,11.70
2022-12-31T20:05:43.312Z,9.20
2022-12-31T20:08:17.195Z,11.70
2022-12-31T20:10:48.924Z,10.40
2022-12-31T20:13:20.817Z,12.70
2022-12-31T20:15:53.724Z,9.30
2022-12-31T20:18:25.258Z,10.20
2022-12-31T20:20:57.826Z,8.40
2022-12-31T20:23:30.037Z,8.20
2022-12-31T20:26:02.783Z,11.90
2022-12-31T20:28:35.176Z,10.60
2022-12-31T20:31:10.348Z,9.70
2022-12-31T20:33:43.266Z,9.80
2022-12-31T20:36:17.649Z,9.60
2022-12-31T20:38:50.528Z,11.30
2022-12-31T20:41:25.175Z,8.90
2022-12-31T20:46:29.711Z,9.30
2022-12-31T20:49:05.821Z,10.50
2022-12-31T20:51:38.446Z,11.40
2022-12-31T20:54:12.097Z,10.40
2022-12-31T20:56:44.762Z,11.70
2022-12-31T20:59:17.404Z,9.30
2022-12-31T21:02:20.457Z,8.50
2022-12-31T21:04:47.206Z,10.70
2022-12-31T21:07:19.039Z,9.40
2022-12-31T21:09:52.443Z,9.30
2022-12-31T21:12:42.235Z,6.90
2022-12-31T21:15:23.950Z,7.60
2022-12-31T21:17:56.006Z,8.70
2022-12-31T21:20:27.943Z,9.10
2022-12-31T21:23:00.140Z,9.20
2022-12-31T21:25:33.653Z,8.20
2022-12-31T21:28:05.402Z,10.20
2022-12-31T21:30:39.480Z,8.90
2022-12-31T21:33:11.281Z,9.30
2022-12-31T21:35:48.676Z,7.00
2022-12-31T21:38:25.409Z,7.10
2022-12-31T21:41:05.167Z,9.00
2022-12-31T21:43:45.039Z,8.80
2022-12-31T21:46:16.815Z,9.80
2022-12-31T21:48:48.817Z,8.70
2022-12-31T21:51:21.601Z,9.10
2022-12-31T21:56:44.367Z,10.30
2022-12-31T21:59:33.582Z,8.10
2022-12-31T22:02:29.033Z,9.50
2022-12-31T22:05:02.587Z,8.90
2022-12-31T22:07:35.590Z,8.00
2022-12-31T22:10:12.762Z,9.40
2022-12-31T22:12:48.355Z,7.10
2022-12-31T22:15:20.728Z,7.40
2022-12-31T22:17:54.279Z,8.90
2022-12-31T22:20:27.894Z,10.30
2022-12-31T22:23:00.380Z,9.20
2022-12-31T22:25:34.222Z,10.20
2022-12-31T22:31:08.036Z,10.20
2022-12-31T22:33:40.504Z,9.10
2022-12-31T22:36:15.477Z,9.10
2022-12-31T22:38:51.943Z,9.10
2022-12-31T22:41:25.792Z,14.00
2022-12-31T22:44:04.124Z,28.90
2022-12-31T22:46:37.854Z,9.40
2022-12-31T22:49:24.780Z,7.90
2022-12-31T22:52:08.741Z,10.70
2022-12-31T22:54:41.689Z,9.00
2022-12-31T22:57:30.553Z,9.70
2022-12-31T23:00:18.227Z,9.00
2022-12-31T23:03:27.705Z,22.60
2022-12-31T23:06:02.505Z,23.10
2022-12-31T23:08:42.129Z,17.70
2022-12-31T23:11:13.745Z,16.90
2022-12-31T23:14:03.928Z,18.10
2022-12-31T23:16:53.179Z,22.00
2022-12-31T23:19:44.171Z,13.30
2022-12-31T23:22:32.748Z,12.20
2022-12-31T23:25:04.787Z,11.10
2022-12-31T23:27:36.603Z,9.00
2022-12-31T23:30:09.819Z,9.00
2022-12-31T23:32:43.372Z,6.80
2022-12-31T23:35:17.559Z,10.40
2022-12-31T23:37:49.390Z,10.00
2022-12-31T23:40:23.146Z,9.10
2022-12-31T23:42:55.076Z,8.70
2022-12-31T23:45:33.142Z,7.00
2022-12-31T23:48:05.626Z,7.50
2022-12-31T23:50:41.596Z,8.30
2022-12-31T23:53:18.114Z,8.20
2022-12-31T23:55:49.671Z,9.00
2022-12-31T23:58:21.641Z,7.10
